sensor_id;sensor_type;location;lat;lon;timestamp;pressure;altitude;pressure_sealevel;temperature;humidity
70546;BME280;58098;51.680;5.134;2023-02-14T00:02:15;103575.78;;;1.87;100.00
70546;BME280;58098;51.680;5.134;2023-02-14T00:04:41;103562.88;;;1.76;100.00
70546;BME280;58098;51.680;5.134;2023-02-14T00:07:09;103550.88;;;1.72;100.00
70546;BME280;58098;51.680;5.134;2023-02-14T00:09:34;103562.00;;;1.71;100.00
70546;BME280;58098;51.680;5.134;2023-02-14T00:12:00;103559.44;;;1.65;100.00
70546;BME280;58098;51.680;5.134;2023-02-14T00:14:25;103547.41;;;1.58;100.00
70546;BME280;58098;51.680;5.134;2023-02-14T00:17:09;103568.88;;;1.68;100.00
70546;BME280;58098;51.680;5.134;2023-02-14T00:19:34;103554.28;;;1.59;100.00
70546;BME280;58098;51.680;5.134;2023-02-14T00:22:00;103555.13;;;1.55;100.00
70546;BME280;58098;51.680;5.134;2023-02-14T00:24:26;103562.84;;;1.58;100.00
70546;BME280;58098;51.680;5.134;2023-02-14T00:26:52;103553.38;;;1.51;100.00
70546;BME280;58098;51.680;5.134;2023-02-14T00:29:20;103561.13;;;1.54;100.00
70546;BME280;58098;51.680;5.134;2023-02-14T00:31:46;103555.97;;;1.51;100.00
70546;BME280;58098;51.680;5.134;2023-02-14T00:34:12;103557.69;;;1.52;100.00
70546;BME280;58098;51.680;5.134;2023-02-14T00:36:38;103554.25;;;1.50;100.00
70546;BME280;58098;51.680;5.134;2023-02-14T00:39:05;103540.50;;;1.42;100.00
70546;BME280;58098;51.680;5.134;2023-02-14T00:41:31;103555.97;;;1.48;100.00
70546;BME280;58098;51.680;5.134;2023-02-14T00:43:56;103554.22;;;1.44;100.00
70546;BME280;58098;51.680;5.134;2023-02-14T00:46:23;103538.78;;;1.40;100.00
70546;BME280;58098;51.680;5.134;2023-02-14T00:48:49;103550.81;;;1.36;100.00
70546;BME280;58098;51.680;5.134;2023-02-14T00:51:14;103534.47;;;1.25;100.00
70546;BME280;58098;51.680;5.134;2023-02-14T00:53:40;103536.22;;;1.29;100.00
70546;BME280;58098;51.680;5.134;2023-02-14T00:56:06;103542.22;;;1.31;100.00
70546;BME280;58098;51.680;5.134;2023-02-14T00:58:32;103529.31;;;1.19;100.00
70546;BME280;58098;51.680;5.134;2023-02-14T01:00:57;103538.75;;;1.27;100.00
70546;BME280;58098;51.680;5.134;2023-02-14T01:03:23;103542.19;;;1.28;100.00
70546;BME280;58098;51.680;5.134;2023-02-14T01:05:49;103537.88;;;1.22;100.00
70546;BME280;58098;51.680;5.134;2023-02-14T01:08:15;103538.75;;;1.24;100.00
70546;BME280;58098;51.680;5.134;2023-02-14T01:10:41;103532.72;;;1.19;100.00
70546;BME280;58098;51.680;5.134;2023-02-14T01:13:07;103527.59;;;1.12;100.00
70546;BME280;58098;51.680;5.134;2023-02-14T01:15:41;103535.31;;;1.21;100.00
70546;BME280;58098;51.680;5.134;2023-02-14T01:18:07;103530.16;;;1.18;100.00
70546;BME280;58098;51.680;5.134;2023-02-14T01:20:33;103540.44;;;1.15;100.00
70546;BME280;58098;51.680;5.134;2023-02-14T01:22:58;103538.72;;;1.11;100.00
70546;BME280;58098;51.680;5.134;2023-02-14T01:25:23;103520.66;;;1.00;100.00
70546;BME280;58098;51.680;5.134;2023-02-14T01:27:49;103538.66;;;1.05;100.00
70546;BME280;58098;51.680;5.134;2023-02-14T01:30:14;103527.53;;;0.97;100.00
70546;BME280;58098;51.680;5.134;2023-02-14T01:32:40;103530.97;;;0.97;100.00
70546;BME280;58098;51.680;5.134;2023-02-14T01:35:07;103545.53;;;1.03;100.00
70546;BME280;58098;51.680;5.134;2023-02-14T01:37:32;103540.38;;;0.98;100.00
70546;BME280;58098;51.680;5.134;2023-02-14T01:39:58;103540.34;;;0.91;100.00
70546;BME280;58098;51.680;5.134;2023-02-14T01:42:23;103534.31;;;0.84;100.00
70546;BME280;58098;51.680;5.134;2023-02-14T01:47:15;103553.19;;;0.91;100.00
70546;BME280;58098;51.680;5.134;2023-02-14T01:49:48;103548.06;;;0.92;100.00
70546;BME280;58098;51.680;5.134;2023-02-14T01:52:19;103550.63;;;0.89;100.00
70546;BME280;58098;51.680;5.134;2023-02-14T01:54:55;103544.59;;;0.84;100.00
70546;BME280;58098;51.680;5.134;2023-02-14T01:57:23;103529.97;;;0.76;100.00
70546;BME280;58098;51.680;5.134;2023-02-14T01:59:55;103532.56;;;0.73;100.00
70546;BME280;58098;51.680;5.134;2023-02-14T02:02:41;103523.97;;;0.68;100.00
70546;BME280;58098;51.680;5.134;2023-02-14T02:05:07;103523.94;;;0.63;100.00
70546;BME280;58098;51.680;5.134;2023-02-14T02:07:32;103548.78;;;0.68;100.00
70546;BME280;58098;51.680;5.134;2023-02-14T02:10:00;103529.91;;;0.60;100.00
70546;BME280;58098;51.680;5.134;2023-02-14T02:12:27;103538.50;;;0.62;100.00
70546;BME280;58098;51.680;5.134;2023-02-14T02:14:54;103523.00;;;0.52;100.00
70546;BME280;58098;51.680;5.134;2023-02-14T02:17:41;103540.19;;;0.60;100.00
70546;BME280;58098;51.680;5.134;2023-02-14T02:20:33;103526.47;;;0.61;100.00
70546;BME280;58098;51.680;5.134;2023-02-14T02:31:29;103516.97;;;0.41;100.00
70546;BME280;58098;51.680;5.134;2023-02-14T02:45:36;103515.97;;;0.19;100.00
70546;BME280;58098;51.680;5.134;2023-02-14T02:48:33;103501.38;;;0.12;100.00
70546;BME280;58098;51.680;5.134;2023-02-14T02:51:05;103509.06;;;0.15;100.00
70546;BME280;58098;51.680;5.134;2023-02-14T02:54:13;103515.94;;;0.16;100.00
70546;BME280;58098;51.680;5.134;2023-02-14T02:56:52;103502.22;;;0.11;100.00
70546;BME280;58098;51.680;5.134;2023-02-14T02:59:32;103512.50;;;0.14;100.00
70546;BME280;58098;51.680;5.134;2023-02-14T03:02:22;103512.47;;;0.11;100.00
70546;BME280;58098;51.680;5.134;2023-02-14T03:04:52;103514.19;;;0.15;100.00
70546;BME280;58098;51.680;5.134;2023-02-14T03:10:19;103497.91;;;0.07;100.00
70546;BME280;58098;51.680;5.134;2023-02-14T03:21:36;103524.41;;;0.06;100.00
70546;BME280;58098;51.680;5.134;2023-02-14T03:24:12;103517.56;;;0.07;100.00
70546;BME280;58098;51.680;5.134;2023-02-14T03:29:25;103520.94;;;0.03;100.00
70546;BME280;58098;51.680;5.134;2023-02-14T03:37:15;103498.63;;;-0.09;100.00
70546;BME280;58098;51.680;5.134;2023-02-14T03:40:09;103508.13;;;-0.01;100.00
70546;BME280;58098;51.680;5.134;2023-02-14T03:42:45;103520.09;;;0.00;100.00
70546;BME280;58098;51.680;5.134;2023-02-14T03:45:19;103505.50;;;-0.08;100.00
70546;BME280;58098;51.680;5.134;2023-02-14T03:47:47;103520.94;;;0.01;100.00
70546;BME280;58098;51.680;5.134;2023-02-14T03:50:18;103502.91;;;-0.07;100.00
70546;BME280;58098;51.680;5.134;2023-02-14T03:52:45;103514.13;;;0.02;100.00
70546;BME280;58098;51.680;5.134;2023-02-14T03:55:15;103516.72;;;0.06;100.00
70546;BME280;58098;51.680;5.134;2023-02-14T03:58:02;103515.88;;;0.09;100.00
70546;BME280;58098;51.680;5.134;2023-02-14T04:00:31;103501.28;;;0.00;100.00
70546;BME280;58098;51.680;5.134;2023-02-14T04:03:03;103519.28;;;0.08;100.00
70546;BME280;58098;51.680;5.134;2023-02-14T04:05:30;103503.81;;;-0.03;100.00
70546;BME280;58098;51.680;5.134;2023-02-14T04:07:57;103525.22;;;0.00;100.00
70546;BME280;58098;51.680;5.134;2023-02-14T04:10:23;103507.19;;;-0.10;100.00
70546;BME280;58098;51.680;5.134;2023-02-14T04:12:49;103527.78;;;-0.01;100.00
70546;BME280;58098;51.680;5.134;2023-02-14T04:15:16;103519.22;;;-0.03;100.00
70546;BME280;58098;51.680;5.134;2023-02-14T04:17:41;103507.16;;;-0.15;100.00
70546;BME280;58098;51.680;5.134;2023-02-14T04:20:26;103508.81;;;-0.18;100.00
70546;BME280;58098;51.680;5.134;2023-02-14T04:22:52;103511.38;;;-0.17;100.00
70546;BME280;58098;51.680;5.134;2023-02-14T04:25:18;103518.25;;;-0.17;100.00
70546;BME280;58098;51.680;5.134;2023-02-14T04:27:43;103524.25;;;-0.15;100.00
70546;BME280;58098;51.680;5.134;2023-02-14T04:30:10;103518.22;;;-0.20;100.00
70546;BME280;58098;51.680;5.134;2023-02-14T04:32:36;103523.34;;;-0.19;100.00
70546;BME280;58098;51.680;5.134;2023-02-14T04:35:01;103505.31;;;-0.28;100.00
70546;BME280;58098;51.680;5.134;2023-02-14T04:37:27;103513.91;;;-0.23;100.00
70546;BME280;58098;51.680;5.134;2023-02-14T04:39:52;103498.44;;;-0.33;100.00
70546;BME280;58098;51.680;5.134;2023-02-14T04:42:17;103501.03;;;-0.32;100.00
70546;BME280;58098;51.680;5.134;2023-02-14T04:44:43;103502.75;;;-0.29;100.00
70546;BME280;58098;51.680;5.134;2023-02-14T04:47:08;103499.28;;;-0.34;100.00
70546;BME280;58098;51.680;5.134;2023-02-14T04:49:34;103497.59;;;-0.32;100.00
70546;BME280;58098;51.680;5.134;2023-02-14T04:52:00;103499.28;;;-0.33;100.00
70546;BME280;58098;51.680;5.134;2023-02-14T04:54:25;103489.00;;;-0.37;100.00
70546;BME280;58098;51.680;5.134;2023-02-14T04:56:51;103501.88;;;-0.28;100.00
70546;BME280;58098;51.680;5.134;2023-02-14T04:59:16;103494.13;;;-0.36;100.00
70546;BME280;58098;51.680;5.134;2023-02-14T05:01:42;103501.88;;;-0.27;100.00
70546;BME280;58098;51.680;5.134;2023-02-14T05:04:08;103484.72;;;-0.37;100.00
70546;BME280;58098;51.680;5.134;2023-02-14T05:06:33;103488.13;;;-0.36;100.00
70546;BME280;58098;51.680;5.134;2023-02-14T05:09:00;103503.63;;;-0.27;100.00
70546;BME280;58098;51.680;5.134;2023-02-14T05:11:26;103500.19;;;-0.29;100.00
70546;BME280;58098;51.680;5.134;2023-02-14T05:13:52;103492.44;;;-0.34;100.00
70546;BME280;58098;51.680;5.134;2023-02-14T05:16:17;103501.06;;;-0.24;100.00
70546;BME280;58098;51.680;5.134;2023-02-14T05:18:42;103502.78;;;-0.22;100.00
70546;BME280;58098;51.680;5.134;2023-02-14T05:21:08;103500.22;;;-0.23;100.00
70546;BME280;58098;51.680;5.134;2023-02-14T05:23:33;103495.97;;;-0.23;100.00
70546;BME280;58098;51.680;5.134;2023-02-14T05:25:58;103491.66;;;-0.24;100.00
70546;BME280;58098;51.680;5.134;2023-02-14T05:28:24;103496.78;;;-0.25;100.00
70546;BME280;58098;51.680;5.134;2023-02-14T05:30:50;103487.38;;;-0.28;100.00
70546;BME280;58098;51.680;5.134;2023-02-14T05:33:16;103498.53;;;-0.21;100.00
70546;BME280;58098;51.680;5.134;2023-02-14T05:35:41;103488.31;;;-0.17;100.00
70546;BME280;58098;51.680;5.134;2023-02-14T05:38:06;103484.91;;;-0.14;100.00
70546;BME280;58098;51.680;5.134;2023-02-14T05:40:32;103478.06;;;-0.12;100.00
70546;BME280;58098;51.680;5.134;2023-02-14T05:42:57;103498.72;;;0.00;100.00
70546;BME280;58098;51.680;5.134;2023-02-14T05:45:23;103477.28;;;-0.02;100.00
70546;BME280;58098;51.680;5.134;2023-02-14T05:47:49;103488.47;;;0.06;100.00
70546;BME280;58098;51.680;5.134;2023-02-14T05:50:15;103484.19;;;0.04;100.00
70546;BME280;58098;51.680;5.134;2023-02-14T05:52:41;103495.38;;;0.15;100.00
70546;BME280;58098;51.680;5.134;2023-02-14T05:55:07;103489.34;;;0.08;100.00
70546;BME280;58098;51.680;5.134;2023-02-14T05:57:32;103488.53;;;0.15;100.00
70546;BME280;58098;51.680;5.134;2023-02-14T05:59:58;103499.69;;;0.19;100.00
70546;BME280;58098;51.680;5.134;2023-02-14T06:02:23;103491.91;;;0.08;100.00
70546;BME280;58098;51.680;5.134;2023-02-14T06:04:49;103504.81;;;0.17;100.00
70546;BME280;58098;51.680;5.134;2023-02-14T06:07:14;103495.38;;;0.13;100.00
70546;BME280;58098;51.680;5.134;2023-02-14T06:09:40;103500.56;;;0.19;100.00
70546;BME280;58098;51.680;5.134;2023-02-14T06:12:05;103483.41;;;0.12;100.00
70546;BME280;58098;51.680;5.134;2023-02-14T06:14:31;103487.66;;;0.13;100.00
70546;BME280;58098;51.680;5.134;2023-02-14T06:16:56;103488.53;;;0.14;100.00
70546;BME280;58098;51.680;5.134;2023-02-14T06:19:21;103491.97;;;0.14;100.00
70546;BME280;58098;51.680;5.134;2023-02-14T06:21:47;103499.72;;;0.22;100.00
70546;BME280;58098;51.680;5.134;2023-02-14T06:24:12;103504.00;;;0.21;100.00
70546;BME280;58098;51.680;5.134;2023-02-14T06:26:38;103488.53;;;0.14;100.00
70546;BME280;58098;51.680;5.134;2023-02-14T06:29:03;103493.66;;;0.11;100.00
70546;BME280;58098;51.680;5.134;2023-02-14T06:31:29;103492.78;;;0.09;100.00
70546;BME280;58098;51.680;5.134;2023-02-14T06:33:54;103510.00;;;0.23;100.00
70546;BME280;58098;51.680;5.134;2023-02-14T06:36:21;103503.13;;;0.22;100.00
70546;BME280;58098;51.680;5.134;2023-02-14T06:38:47;103504.84;;;0.23;100.00
70546;BME280;58098;51.680;5.134;2023-02-14T06:41:13;103508.31;;;0.27;100.00
70546;BME280;58098;51.680;5.134;2023-02-14T06:43:41;103500.59;;;0.25;100.00
70546;BME280;58098;51.680;5.134;2023-02-14T06:46:07;103504.03;;;0.26;100.00
70546;BME280;58098;51.680;5.134;2023-02-14T06:48:32;103512.59;;;0.29;100.00
70546;BME280;58098;51.680;5.134;2023-02-14T06:50:57;103507.44;;;0.23;100.00
70546;BME280;58098;51.680;5.134;2023-02-14T06:53:23;103509.13;;;0.21;100.00
70546;BME280;58098;51.680;5.134;2023-02-14T06:55:48;103511.69;;;0.21;100.00
70546;BME280;58098;51.680;5.134;2023-02-14T06:58:13;103503.09;;;0.18;100.00
70546;BME280;58098;51.680;5.134;2023-02-14T07:00:39;103511.66;;;0.20;100.00
70546;BME280;58098;51.680;5.134;2023-02-14T07:03:05;103496.22;;;0.11;100.00
70546;BME280;58098;51.680;5.134;2023-02-14T07:05:31;103498.81;;;0.12;100.00
70546;BME280;58098;51.680;5.134;2023-02-14T07:07:57;103509.94;;;0.17;100.00
70546;BME280;58098;51.680;5.134;2023-02-14T07:10:22;103511.66;;;0.17;100.00
70546;BME280;58098;51.680;5.134;2023-02-14T07:12:47;103494.47;;;0.08;100.00
70546;BME280;58098;51.680;5.134;2023-02-14T07:15:13;103495.38;;;0.13;100.00
70546;BME280;58098;51.680;5.134;2023-02-14T07:17:38;103491.06;;;0.09;100.00
70546;BME280;58098;51.680;5.134;2023-02-14T07:20:05;103502.22;;;0.17;100.00
70546;BME280;58098;51.680;5.134;2023-02-14T07:22:32;103491.97;;;0.14;100.00
70546;BME280;58098;51.680;5.134;2023-02-14T07:24:57;103497.19;;;0.26;100.00
70546;BME280;58098;51.680;5.134;2023-02-14T07:27:23;103477.47;;;0.22;100.00
70546;BME280;58098;51.680;5.134;2023-02-14T07:29:48;103483.47;;;0.27;100.00
70546;BME280;58098;51.680;5.134;2023-02-14T07:32:13;103483.53;;;0.33;100.00
70546;BME280;58098;51.680;5.134;2023-02-14T07:34:39;103504.16;;;0.45;100.00
70546;BME280;58098;51.680;5.134;2023-02-14T07:37:04;103496.41;;;0.41;100.00
70546;BME280;58098;51.680;5.134;2023-02-14T07:39:29;103503.28;;;0.45;100.00
70546;BME280;58098;51.680;5.134;2023-02-14T07:41:55;103503.34;;;0.51;100.00
70546;BME280;58098;51.680;5.134;2023-02-14T07:44:20;103511.91;;;0.53;100.00
70546;BME280;58098;51.680;5.134;2023-02-14T07:46:45;103501.63;;;0.53;100.00
70546;BME280;58098;51.680;5.134;2023-02-14T07:49:11;103502.47;;;0.55;100.00
70546;BME280;58098;51.680;5.134;2023-02-14T07:51:36;103497.34;;;0.55;100.00
70546;BME280;58098;51.680;5.134;2023-02-14T07:54:02;103503.41;;;0.63;100.00
70546;BME280;58098;51.680;5.134;2023-02-14T07:56:27;103508.56;;;0.71;100.00
70546;BME280;58098;51.680;5.134;2023-02-14T07:58:53;103510.28;;;0.76;100.00
70546;BME280;58098;51.680;5.134;2023-02-14T08:01:18;103511.19;;;0.83;100.00
70546;BME280;58098;51.680;5.134;2023-02-14T08:03:45;103498.34;;;0.83;100.00
70546;BME280;58098;51.680;5.134;2023-02-14T08:06:16;103502.66;;;0.90;100.00
70546;BME280;58098;51.680;5.134;2023-02-14T08:08:42;103502.69;;;0.97;100.00
70546;BME280;58098;51.680;5.134;2023-02-14T08:11:07;103511.28;;;1.07;100.00
70546;BME280;58098;51.680;5.134;2023-02-14T08:13:33;103501.84;;;1.06;100.00
70546;BME280;58098;51.680;5.134;2023-02-14T08:15:58;103516.44;;;1.16;100.00
70546;BME280;58098;51.680;5.134;2023-02-14T08:18:37;103496.72;;;1.09;100.00
70546;BME280;58098;51.680;5.134;2023-02-14T08:21:04;103511.31;;;1.25;100.00
70546;BME280;58098;51.680;5.134;2023-02-14T08:23:30;103504.47;;;1.31;100.00
70546;BME280;58098;51.680;5.134;2023-02-14T08:25:56;103499.31;;;1.31;100.00
70546;BME280;58098;51.680;5.134;2023-02-14T08:28:22;103498.50;;;1.37;100.00
70546;BME280;58098;51.680;5.134;2023-02-14T08:30:48;103514.81;;;1.45;100.00
70546;BME280;58098;51.680;5.134;2023-02-14T08:33:13;103501.94;;;1.51;100.00
70546;BME280;58098;51.680;5.134;2023-02-14T08:35:38;103504.53;;;1.60;100.00
70546;BME280;58098;51.680;5.134;2023-02-14T08:38:04;103500.22;;;1.61;100.00
70546;BME280;58098;51.680;5.134;2023-02-14T08:40:29;103502.81;;;1.71;100.00
70546;BME280;58098;51.680;5.134;2023-02-14T08:42:55;103512.25;;;1.90;100.00
70546;BME280;58098;51.680;5.134;2023-02-14T08:45:20;103510.56;;;1.91;100.00
70546;BME280;58098;51.680;5.134;2023-02-14T08:47:46;103507.13;;;1.92;100.00
70546;BME280;58098;51.680;5.134;2023-02-14T08:50:14;103509.69;;;1.98;100.00
70546;BME280;58098;51.680;5.134;2023-02-14T08:52:41;103512.28;;;2.12;100.00
70546;BME280;58098;51.680;5.134;2023-02-14T08:55:08;103487.38;;;2.11;100.00
70546;BME280;58098;51.680;5.134;2023-02-14T08:57:34;103512.25;;;2.28;100.00
70546;BME280;58098;51.680;5.134;2023-02-14T08:59:59;103504.50;;;2.36;100.00
70546;BME280;58098;51.680;5.134;2023-02-14T09:02:24;103502.78;;;2.45;100.00
70546;BME280;58098;51.680;5.134;2023-02-14T09:04:50;103489.00;;;2.51;100.00
70546;BME280;58098;51.680;5.134;2023-02-14T09:07:15;103503.56;;;2.70;100.00
70546;BME280;58098;51.680;5.134;2023-02-14T09:09:41;103508.66;;;2.78;100.00
70546;BME280;58098;51.680;5.134;2023-02-14T09:12:07;103494.91;;;2.79;100.00
70546;BME280;58098;51.680;5.134;2023-02-14T09:14:35;103501.75;;;2.86;100.00
70546;BME280;58098;51.680;5.134;2023-02-14T09:17:01;103505.16;;;2.94;100.00
70546;BME280;58098;51.680;5.134;2023-02-14T09:19:30;103490.50;;;3.03;100.00
70546;BME280;58098;51.680;5.134;2023-02-14T09:21:55;103488.72;;;3.17;100.00
70546;BME280;58098;51.680;5.134;2023-02-14T09:24:20;103504.09;;;3.32;100.00
70546;BME280;58098;51.680;5.134;2023-02-14T09:26:46;103496.31;;;3.40;100.00
70546;BME280;58098;51.680;5.134;2023-02-14T09:29:11;103502.28;;;3.50;100.00
70546;BME280;58098;51.680;5.134;2023-02-14T09:31:37;103501.38;;;3.51;100.00
70546;BME280;58098;51.680;5.134;2023-02-14T09:34:02;103489.31;;;3.57;100.00
70546;BME280;58098;51.680;5.134;2023-02-14T09:36:46;103484.06;;;3.69;100.00
70546;BME280;58098;51.680;5.134;2023-02-14T09:39:30;103498.56;;;3.82;100.00
70546;BME280;58098;51.680;5.134;2023-02-14T09:44:33;103462.34;;;3.90;100.00
70546;BME280;58098;51.680;5.134;2023-02-14T09:49:54;103485.25;;;4.28;100.00
70546;BME280;58098;51.680;5.134;2023-02-14T09:52:21;103465.41;;;4.30;100.00
70546;BME280;58098;51.680;5.134;2023-02-14T09:54:54;103466.97;;;4.44;100.00
70546;BME280;58098;51.680;5.134;2023-02-14T10:00:02;103473.59;;;4.66;100.00
70546;BME280;58098;51.680;5.134;2023-02-14T10:02:56;103462.34;;;4.72;100.00
70546;BME280;58098;51.680;5.134;2023-02-14T10:05:27;103471.56;;;4.91;100.00
70546;BME280;58098;51.680;5.134;2023-02-14T10:08:18;103470.59;;;5.01;100.00
70546;BME280;58098;51.680;5.134;2023-02-14T10:10:58;103445.47;;;5.08;100.00
70546;BME280;58098;51.680;5.134;2023-02-14T10:13:34;103457.28;;;5.25;100.00
70546;BME280;58098;51.680;5.134;2023-02-14T10:16:21;103439.03;;;5.33;100.00
70546;BME280;58098;51.680;5.134;2023-02-14T10:19:06;103444.88;;;5.47;100.00
70546;BME280;58098;51.680;5.134;2023-02-14T10:21:43;103432.63;;;5.55;100.00
70546;BME280;58098;51.680;5.134;2023-02-14T10:24:27;103425.66;;;5.62;100.00
70546;BME280;58098;51.680;5.134;2023-02-14T10:26:59;103451.06;;;5.90;100.00
70546;BME280;58098;51.680;5.134;2023-02-14T10:29:26;103444.00;;;6.00;100.00
70546;BME280;58098;51.680;5.134;2023-02-14T10:31:58;103435.31;;;6.03;100.00
70546;BME280;58098;51.680;5.134;2023-02-14T10:34:45;103456.50;;;6.24;100.00
70546;BME280;58098;51.680;5.134;2023-02-14T10:37:35;103451.88;;;6.40;100.00
70546;BME280;58098;51.680;5.134;2023-02-14T10:43:22;103442.59;;;6.71;100.00
70546;BME280;58098;51.680;5.134;2023-02-14T10:46:26;103425.19;;;6.76;100.00
70546;BME280;58098;51.680;5.134;2023-02-14T10:49:35;103438.56;;;6.96;100.00
70546;BME280;58098;51.680;5.134;2023-02-14T10:52:20;103441.63;;;7.13;100.00
70546;BME280;58098;51.680;5.134;2023-02-14T10:55:00;103427.59;;;7.22;100.00
70546;BME280;58098;51.680;5.134;2023-02-14T10:57:36;103433.88;;;7.49;100.00
70546;BME280;58098;51.680;5.134;2023-02-14T11:02:44;103419.28;;;7.77;100.00
70546;BME280;58098;51.680;5.134;2023-02-14T11:05:35;103424.91;;;7.94;100.00
70546;BME280;58098;51.680;5.134;2023-02-14T11:08:01;103410.03;;;7.99;100.00
70546;BME280;58098;51.680;5.134;2023-02-14T11:10:31;103413.91;;;8.17;100.00
70546;BME280;58098;51.680;5.134;2023-02-14T11:12:58;103420.31;;;8.36;100.00
70546;BME280;58098;51.680;5.134;2023-02-14T11:15:32;103417.59;;;8.40;100.00
70546;BME280;58098;51.680;5.134;2023-02-14T11:18:20;103417.31;;;8.49;100.00
70546;BME280;58098;51.680;5.134;2023-02-14T11:20:59;103407.41;;;8.62;100.00
70546;BME280;58098;51.680;5.134;2023-02-14T11:23:25;103418.31;;;8.75;100.00
70546;BME280;58098;51.680;5.134;2023-02-14T11:25:53;103413.75;;;8.83;100.00
70546;BME280;58098;51.680;5.134;2023-02-14T11:28:20;103394.00;;;8.76;100.00
70546;BME280;58098;51.680;5.134;2023-02-14T11:30:47;103410.91;;;8.90;100.00
70546;BME280;58098;51.680;5.134;2023-02-14T11:35:58;103398.53;;;8.97;100.00
70546;BME280;58098;51.680;5.134;2023-02-14T11:38:30;103387.19;;;8.99;100.00
70546;BME280;58098;51.680;5.134;2023-02-14T11:40:58;103380.88;;;9.06;100.00
70546;BME280;58098;51.680;5.134;2023-02-14T11:43:33;103392.47;;;9.24;100.00
70546;BME280;58098;51.680;5.134;2023-02-14T11:46:11;103379.91;;;9.37;100.00
70546;BME280;58098;51.680;5.134;2023-02-14T11:48:38;103374.56;;;9.66;100.00
70546;BME280;58098;51.680;5.134;2023-02-14T11:51:07;103386.47;;;9.73;100.00
70546;BME280;58098;51.680;5.134;2023-02-14T11:53:46;103369.63;;;9.81;100.00
70546;BME280;58098;51.680;5.134;2023-02-14T11:56:13;103375.03;;;10.25;100.00
70546;BME280;58098;51.680;5.134;2023-02-14T11:59:00;103380.94;;;10.53;100.00
70546;BME280;58098;51.680;5.134;2023-02-14T12:01:32;103372.22;;;10.76;100.00
70546;BME280;58098;51.680;5.134;2023-02-14T12:04:02;103361.91;;;10.94;100.00
70546;BME280;58098;51.680;5.134;2023-02-14T12:06:30;103366.91;;;11.20;100.00
70546;BME280;58098;51.680;5.134;2023-02-14T12:12:15;103352.75;;;11.26;100.00
70546;BME280;58098;51.680;5.134;2023-02-14T12:14:38;103345.09;;;11.42;100.00
70546;BME280;58098;51.680;5.134;2023-02-14T12:17:12;103345.75;;;11.47;100.00
70546;BME280;58098;51.680;5.134;2023-02-14T12:19:47;103337.03;;;11.48;100.00
70546;BME280;58098;51.680;5.134;2023-02-14T12:22:23;103335.22;;;11.70;100.00
70546;BME280;58098;51.680;5.134;2023-02-14T12:30:39;103339.47;;;12.30;100.00
70546;BME280;58098;51.680;5.134;2023-02-14T12:33:31;103334.72;;;12.38;100.00
70546;BME280;58098;51.680;5.134;2023-02-14T12:36:10;103324.88;;;12.43;100.00
70546;BME280;58098;51.680;5.134;2023-02-14T12:43:55;103303.59;;;12.32;100.00
70546;BME280;58098;51.680;5.134;2023-02-14T12:46:43;103298.56;;;12.46;100.00
70546;BME280;58098;51.680;5.134;2023-02-14T12:49:33;103290.84;;;12.43;100.00
70546;BME280;58098;51.680;5.134;2023-02-14T12:52:17;103294.59;;;12.73;100.00
70546;BME280;58098;51.680;5.134;2023-02-14T12:57:53;103279.53;;;12.95;100.00
70546;BME280;58098;51.680;5.134;2023-02-14T13:08:48;103262.78;;;12.98;100.00
70546;BME280;58098;51.680;5.134;2023-02-14T13:13:57;103265.91;;;13.23;100.00
70546;BME280;58098;51.680;5.134;2023-02-14T13:17:13;103263.91;;;13.28;100.00
70546;BME280;58098;51.680;5.134;2023-02-14T13:22:27;103246.84;;;13.02;100.00
70546;BME280;58098;51.680;5.134;2023-02-14T13:24:58;103252.97;;;13.20;100.00
70546;BME280;58098;51.680;5.134;2023-02-14T13:27:30;103252.56;;;13.28;100.00
70546;BME280;58098;51.680;5.134;2023-02-14T13:30:12;103251.38;;;13.50;100.00
70546;BME280;58098;51.680;5.134;2023-02-14T13:32:42;103246.81;;;13.21;100.00
70546;BME280;58098;51.680;5.134;2023-02-14T13:35:15;103248.69;;;13.35;100.00
70546;BME280;58098;51.680;5.134;2023-02-14T13:37:45;103251.94;;;13.40;100.00
70546;BME280;58098;51.680;5.134;2023-02-14T13:40:18;103248.16;;;13.45;100.00
70546;BME280;58098;51.680;5.134;2023-02-14T13:53:38;103233.63;;;13.71;100.00
70546;BME280;58098;51.680;5.134;2023-02-14T13:56:30;103234.22;;;13.76;100.00
70546;BME280;58098;51.680;5.134;2023-02-14T13:59:04;103238.84;;;14.04;100.00
70546;BME280;58098;51.680;5.134;2023-02-14T14:01:37;103229.84;;;14.08;100.00
70546;BME280;58098;51.680;5.134;2023-02-14T14:17:30;103218.19;;;13.82;100.00
70546;BME280;58098;51.680;5.134;2023-02-14T14:19:56;103219.50;;;13.73;100.00
70546;BME280;58098;51.680;5.134;2023-02-14T14:22:22;103217.97;;;13.69;100.00
70546;BME280;58098;51.680;5.134;2023-02-14T14:24:57;103215.63;;;13.96;100.00
70546;BME280;58098;51.680;5.134;2023-02-14T14:27:34;103175.75;;;13.74;100.00
70546;BME280;58098;51.680;5.134;2023-02-14T14:30:03;103212.91;;;13.98;100.00
70546;BME280;58098;51.680;5.134;2023-02-14T14:32:35;103211.84;;;14.02;100.00
70546;BME280;58098;51.680;5.134;2023-02-14T14:37:48;103212.22;;;13.78;100.00
70546;BME280;58098;51.680;5.134;2023-02-14T14:40:32;103193.41;;;13.70;100.00
70546;BME280;58098;51.680;5.134;2023-02-14T14:43:04;103207.13;;;13.75;100.00
70546;BME280;58098;51.680;5.134;2023-02-14T14:45:30;103197.91;;;13.68;100.00
70546;BME280;58098;51.680;5.134;2023-02-14T14:48:02;103194.28;;;13.71;100.00
70546;BME280;58098;51.680;5.134;2023-02-14T14:50:34;103193.97;;;13.44;100.00
70546;BME280;58098;51.680;5.134;2023-02-14T14:53:05;103190.53;;;13.59;100.00
70546;BME280;58098;51.680;5.134;2023-02-14T14:55:36;103184.84;;;13.36;100.00
70546;BME280;58098;51.680;5.134;2023-02-14T14:58:05;103191.16;;;13.32;100.00
70546;BME280;58098;51.680;5.134;2023-02-14T15:00:33;103200.28;;;13.24;100.00